Time;durP1;ratioP1;P1;durP2;ratioP2;P2;SDS_P1;SDS_P2;PMS_P1;PMS_P2;Temp;Humidity;BMP_temperature;BMP_pressure;BME280_temperature;BME280_humidity;BME280_pressure;Samples;Min_cycle;Max_cycle;Signal;HPM_P1;HPM_P2
2023/08/02 00:02:07;;;;;;;;;;;;;;;15.63;72.18;99468.92;104914;1294;72378;-87
2023/08/02 00:05:33;;;;;;;;;;;;;;;15.62;72.21;99471.43;105016;1293;67378;-86
2023/08/02 00:08:47;;;;;;;;;;;;;;;15.61;72.07;99471.33;104960;1294;74182;-87
2023/08/02 00:12:13;;;;;;;;;;;;;;;15.54;72.21;99468.17;104939;1293;60394;-86
2023/08/02 00:15:39;;;;;;;;;;;;;;;15.51;72.22;99475.46;104972;1294;60377;-87
2023/08/02 00:19:06;;;;;;;;;;;;;;;15.51;72.38;99472.70;104955;1293;72481;-86
2023/08/02 00:22:32;;;;;;;;;;;;;;;15.49;72.30;99474.36;104929;1294;70915;-87
2023/08/02 00:25:58;;;;;;;;;;;;;;;15.49;72.19;99473.48;104954;1293;70215;-87
2023/08/02 00:29:25;;;;;;;;;;;;;;;15.48;72.35;99477.92;105017;1294;60460;-88
2023/08/02 00:32:51;;;;;;;;;;;;;;;15.44;72.43;99481.04;105010;1292;60294;-87
2023/08/02 00:36:18;;;;;;;;;;;;;;;15.44;72.39;99482.11;105212;1288;71396;-87
2023/08/02 00:39:44;;;;;;;;;;;;;;;15.42;72.36;99483.60;105431;1288;67980;-89
2023/08/02 01:06:48;;;;;;;;;;;;;;;15.31;72.63;99488.72;105586;1293;74098;-93
2023/08/02 01:10:19;;;;;;;;;;;;;;;15.28;72.62;99493.08;104559;1297;74109;-88
2023/08/02 01:13:46;;;;;;;;;;;;;;;15.26;72.61;99491.80;104071;1305;60518;-88
2023/08/02 01:17:14;;;;;;;;;;;;;;;15.23;72.68;99491.37;103473;1310;60639;-88
2023/08/02 01:20:41;;;;;;;;;;;;;;;15.20;72.66;99492.95;102877;1317;73352;-89
2023/08/02 01:24:07;;;;;;;;;;;;;;;15.17;72.69;99492.23;102717;1320;67399;-86
2023/08/02 01:27:39;;;;;;;;;;;;;;;15.16;72.74;99490.92;102627;1320;74118;-87
2023/08/02 01:31:06;;;;;;;;;;;;;;;15.14;72.80;99487.52;102640;1320;60345;-86
2023/08/02 01:34:32;;;;;;;;;;;;;;;15.15;72.72;99494.10;102595;1322;61360;-86
2023/08/02 01:37:59;;;;;;;;;;;;;;;15.15;72.78;99495.48;102674;1319;73444;-87
2023/08/02 01:41:25;;;;;;;;;;;;;;;15.11;72.83;99497.93;102684;1321;68513;-87
2023/08/02 01:44:52;;;;;;;;;;;;;;;15.07;72.83;99502.52;102532;1320;71251;-87
2023/08/02 01:48:18;;;;;;;;;;;;;;;15.03;72.90;99499.62;103115;1315;60842;-87
2023/08/02 01:51:45;;;;;;;;;;;;;;;15.00;72.97;99500.13;103682;1310;61163;-87
2023/08/02 01:55:12;;;;;;;;;;;;;;;15.00;72.92;99499.09;104140;1303;99660;-87
2023/08/02 01:58:39;;;;;;;;;;;;;;;14.99;72.94;99498.62;104725;1296;67411;-87
2023/08/02 02:02:12;;;;;;;;;;;;;;;14.99;72.93;99494.47;105273;1289;71158;-87
2023/08/02 02:05:38;;;;;;;;;;;;;;;14.94;72.99;99494.00;105298;1290;61253;-87
2023/08/02 02:09:05;;;;;;;;;;;;;;;14.90;73.09;99506.14;105217;1291;61157;-87
2023/08/02 02:12:31;;;;;;;;;;;;;;;14.88;73.07;99502.45;105297;1290;74526;-87
2023/08/02 02:15:58;;;;;;;;;;;;;;;14.85;73.05;99503.47;104725;1297;68778;-87
2023/08/02 02:19:24;;;;;;;;;;;;;;;14.83;73.11;99505.34;104740;1303;71315;-87
2023/08/02 02:22:51;;;;;;;;;;;;;;;14.81;73.06;99503.00;104743;1301;62822;-87
2023/08/02 02:26:17;;;;;;;;;;;;;;;14.80;73.03;99497.30;104687;1297;62190;-87
2023/08/02 02:29:44;;;;;;;;;;;;;;;14.78;73.06;99505.23;104736;1297;73412;-87
2023/08/02 02:33:11;;;;;;;;;;;;;;;14.76;73.10;99509.35;104694;1297;70018;-87
2023/08/02 02:36:38;;;;;;;;;;;;;;;14.76;73.15;99508.12;104790;1297;71132;-88
2023/08/02 02:40:04;;;;;;;;;;;;;;;14.72;73.19;99507.77;104752;1297;59984;-87
2023/08/02 02:43:31;;;;;;;;;;;;;;;14.70;73.17;99508.75;104322;1302;59952;-87
2023/08/02 02:46:57;;;;;;;;;;;;;;;14.69;73.35;99514.52;104089;1305;73946;-86
2023/08/02 02:50:24;;;;;;;;;;;;;;;14.68;73.20;99514.58;104115;1305;67388;-87
2023/08/02 02:53:51;;;;;;;;;;;;;;;14.67;73.28;99519.31;104477;1300;72595;-88
2023/08/02 02:57:17;;;;;;;;;;;;;;;14.67;73.29;99521.58;104485;1300;61277;-88
2023/08/02 03:00:43;;;;;;;;;;;;;;;14.66;73.24;99517.63;104446;1300;61193;-87
2023/08/02 03:04:10;;;;;;;;;;;;;;;14.64;73.30;99520.16;104445;1301;74791;-88
2023/08/02 03:07:36;;;;;;;;;;;;;;;14.62;73.33;99519.05;104498;1300;67580;-88
2023/08/02 03:11:03;;;;;;;;;;;;;;;14.61;73.25;99522.75;104460;1300;71395;-87
2023/08/02 03:14:29;;;;;;;;;;;;;;;14.57;73.23;99532.80;104464;1300;61478;-87
2023/08/02 03:17:56;;;;;;;;;;;;;;;14.54;73.34;99531.95;104460;1300;61152;-87
2023/08/02 03:21:22;;;;;;;;;;;;;;;14.54;73.40;99534.20;104852;1294;75778;-87
2023/08/02 03:24:49;;;;;;;;;;;;;;;14.52;73.38;99531.34;105270;1291;67835;-88
2023/08/02 03:28:15;;;;;;;;;;;;;;;14.51;73.39;99534.54;105299;1294;71450;-88
2023/08/02 03:31:42;;;;;;;;;;;;;;;14.48;73.44;99536.94;105228;1291;61293;-88
2023/08/02 03:35:08;;;;;;;;;;;;;;;14.49;73.55;99537.44;105301;1291;61035;-88
2023/08/02 03:38:34;;;;;;;;;;;;;;;14.47;73.41;99548.60;105303;1291;73297;-87
2023/08/02 03:42:01;;;;;;;;;;;;;;;14.47;73.53;99545.84;105277;1291;71249;-87
2023/08/02 03:45:27;;;;;;;;;;;;;;;14.51;73.75;99547.02;105276;1291;73984;-87
2023/08/02 03:48:54;;;;;;;;;;;;;;;14.54;73.65;99546.20;105282;1294;61187;-87
2023/08/02 03:52:20;;;;;;;;;;;;;;;14.58;73.64;99547.01;105313;1289;59241;-87
2023/08/02 03:55:46;;;;;;;;;;;;;;;14.62;73.72;99549.24;105260;1291;72397;-87
2023/08/02 03:59:13;;;;;;;;;;;;;;;14.66;73.84;99548.52;105378;1288;67549;-88
2023/08/02 04:02:39;;;;;;;;;;;;;;;14.72;73.76;99546.46;105251;1293;74035;-88
2023/08/02 04:06:06;;;;;;;;;;;;;;;14.80;73.76;99547.98;105267;1291;61303;-88
2023/08/02 04:09:32;;;;;;;;;;;;;;;14.87;73.88;99549.17;104768;1296;61561;-88
2023/08/02 04:12:58;;;;;;;;;;;;;;;14.97;73.96;99547.82;104806;1295;74400;-87
2023/08/02 04:16:25;;;;;;;;;;;;;;;15.07;73.96;99546.08;104804;1296;67273;-88
2023/08/02 04:19:51;;;;;;;;;;;;;;;15.13;73.89;99544.88;104760;1295;71250;-88
2023/08/02 04:23:18;;;;;;;;;;;;;;;15.19;73.98;99549.09;104764;1297;60208;-87
2023/08/02 04:26:44;;;;;;;;;;;;;;;15.22;73.87;99547.70;104840;1299;61157;-87
2023/08/02 04:30:10;;;;;;;;;;;;;;;15.25;73.88;99547.73;104831;1296;73848;-87
2023/08/02 04:33:36;;;;;;;;;;;;;;;15.31;73.92;99551.41;104449;1299;67545;-87
2023/08/02 04:37:03;;;;;;;;;;;;;;;15.39;74.01;99552.01;104501;1300;72971;-87
2023/08/02 04:40:30;;;;;;;;;;;;;;;15.48;74.07;99547.55;104045;1306;59415;-87
2023/08/02 04:43:56;;;;;;;;;;;;;;;15.54;74.02;99548.78;104037;1306;60137;-87
2023/08/02 04:47:22;;;;;;;;;;;;;;;15.61;73.89;99554.36;104431;1300;73468;-86
2023/08/02 04:50:49;;;;;;;;;;;;;;;15.68;73.94;99559.52;104436;1300;69966;-87
2023/08/02 04:54:15;;;;;;;;;;;;;;;15.78;74.08;99565.39;104517;1299;71276;-87
2023/08/02 04:57:41;;;;;;;;;;;;;;;15.89;73.83;99567.92;104482;1300;59365;-87
2023/08/02 05:01:07;;;;;;;;;;;;;;;15.99;73.89;99562.90;104465;1299;61184;-86
2023/08/02 05:04:33;;;;;;;;;;;;;;;16.06;73.86;99568.91;104589;1298;76175;-88
2023/08/02 05:08:01;;;;;;;;;;;;;;;16.09;73.87;99569.64;104762;1296;68765;-88
2023/08/02 05:11:26;;;;;;;;;;;;;;;16.08;73.87;99570.02;104694;1297;71357;-87
2023/08/02 05:14:53;;;;;;;;;;;;;;;16.08;73.89;99568.47;104379;1302;59384;-87
2023/08/02 05:18:20;;;;;;;;;;;;;;;16.12;73.86;99574.13;104737;1299;61399;-88
2023/08/02 05:21:46;;;;;;;;;;;;;;;16.15;73.78;99574.10;104845;1296;74087;-88
2023/08/02 05:25:13;;;;;;;;;;;;;;;16.23;73.91;99569.52;104804;1300;68462;-87
2023/08/02 05:28:39;;;;;;;;;;;;;;;16.43;74.00;99571.67;104270;1303;71287;-88
2023/08/02 05:32:06;;;;;;;;;;;;;;;16.89;73.92;99579.98;104245;1303;61285;-88
2023/08/02 05:35:32;;;;;;;;;;;;;;;17.63;74.06;99581.96;104023;1306;60511;-88
2023/08/02 05:39:02;;;;;;;;;;;;;;;18.54;73.84;99577.54;103982;1310;74154;-88
2023/08/02 05:42:28;;;;;;;;;;;;;;;19.42;73.39;99581.03;103423;1314;69999;-88
2023/08/02 05:45:55;;;;;;;;;;;;;;;20.17;73.25;99586.55;103333;1312;71271;-88
2023/08/02 05:49:21;;;;;;;;;;;;;;;20.81;72.82;99583.21;103349;1317;61357;-89
2023/08/02 05:52:48;;;;;;;;;;;;;;;21.41;72.65;99574.64;103451;1311;59378;-89
2023/08/02 05:56:17;;;;;;;;;;;;;;;21.92;72.40;99583.73;103505;1314;73411;-88
2023/08/02 05:59:43;;;;;;;;;;;;;;;22.34;71.83;99589.83;103504;1311;66438;-88
2023/08/02 06:03:10;;;;;;;;;;;;;;;22.71;71.60;99588.39;103509;1314;74242;-88
2023/08/02 06:06:36;;;;;;;;;;;;;;;22.69;71.05;99583.31;104099;1306;59535;-88
2023/08/02 06:10:03;;;;;;;;;;;;;;;22.50;71.16;99584.18;104195;1306;59180;-88
2023/08/02 06:13:30;;;;;;;;;;;;;;;22.81;71.50;99588.76;104309;1303;73478;-88
2023/08/02 06:16:56;;;;;;;;;;;;;;;23.43;71.12;99590.39;104401;1303;67200;-88
2023/08/02 06:20:22;;;;;;;;;;;;;;;24.11;70.81;99589.34;104620;1302;71287;-89
2023/08/02 06:23:59;;;;;;;;;;;;;;;24.52;69.89;99591.14;104882;1298;61507;-88
2023/08/02 06:27:25;;;;;;;;;;;;;;;24.80;69.75;99594.04;104867;1296;61134;-88
2023/08/02 06:30:52;;;;;;;;;;;;;;;25.34;69.39;99592.59;104820;1297;74673;-88
2023/08/02 06:34:18;;;;;;;;;;;;;;;26.02;69.13;99597.52;104918;1296;67236;-89
2023/08/02 06:37:45;;;;;;;;;;;;;;;26.60;69.09;99591.52;104887;1300;71367;-89
2023/08/02 06:41:11;;;;;;;;;;;;;;;26.68;68.33;99596.34;105001;1298;61089;-88
2023/08/02 06:44:37;;;;;;;;;;;;;;;26.77;68.50;99591.86;104848;1296;61433;-89
2023/08/02 06:48:05;;;;;;;;;;;;;;;27.78;67.93;99590.45;104843;1297;73210;-89
2023/08/02 06:51:30;;;;;;;;;;;;;;;28.30;67.07;99593.76;104775;1297;67338;-89
2023/08/02 06:54:56;;;;;;;;;;;;;;;28.34;66.75;99596.38;104802;1296;72346;-88
2023/08/02 06:58:22;;;;;;;;;;;;;;;29.35;66.12;99591.33;104475;1299;61389;-88
2023/08/02 07:01:48;;;;;;;;;;;;;;;30.16;65.36;99589.32;104660;1302;59287;-89
2023/08/02 07:05:15;;;;;;;;;;;;;;;30.54;65.25;99580.11;100537;1302;5531245;-88
2023/08/02 07:08:41;;;;;;;;;;;;;;;30.71;65.15;99573.35;104554;1299;67249;-89
2023/08/02 07:12:08;;;;;;;;;;;;;;;30.53;64.41;99574.73;104533;1302;74161;-87
2023/08/02 07:15:34;;;;;;;;;;;;;;;30.96;63.77;99576.64;104314;1303;61637;-88
2023/08/02 07:19:02;;;;;;;;;;;;;;;31.39;63.38;99574.44;104065;1305;61403;-88
2023/08/02 07:22:27;;;;;;;;;;;;;;;31.74;62.32;99575.30;104625;1307;73603;-88
2023/08/02 07:25:53;;;;;;;;;;;;;;;31.02;62.13;99578.04;104163;1303;67438;-89
2023/08/02 07:29:19;;;;;;;;;;;;;;;30.40;61.77;99576.58;104509;1296;71262;-90
2023/08/02 07:32:47;;;;;;;;;;;;;;;29.66;61.97;99585.71;104602;1295;61345;-90
2023/08/02 07:35:57;;;;;;;;;;;;;;;29.34;61.67;99583.83;104998;1295;61153;-90
2023/08/02 07:38:45;;;;;;;;;;;;;;;28.79;60.99;99580.10;105053;1294;73364;-84
2023/08/02 07:41:31;;;;;;;;;;;;;;;27.78;60.61;99576.80;104948;1293;68623;-85
2023/08/02 07:44:17;;;;;;;;;;;;;;;27.36;60.91;99571.95;104984;1294;71169;-85
2023/08/02 07:47:06;;;;;;;;;;;;;;;27.53;60.78;99566.79;105284;1295;61224;-85
2023/08/02 07:49:53;;;;;;;;;;;;;;;27.69;60.50;99563.89;105188;1295;61185;-85
2023/08/02 07:52:39;;;;;;;;;;;;;;;28.29;60.04;99572.62;105344;1290;73773;-85
2023/08/02 07:55:25;;;;;;;;;;;;;;;29.49;59.51;99575.66;105309;1292;67245;-85
2023/08/02 07:58:11;;;;;;;;;;;;;;;31.08;57.96;99575.70;105297;1289;75456;-84
2023/08/02 08:01:03;;;;;;;;;;;;;;;32.21;57.32;99568.18;105077;1291;59530;-85
2023/08/02 08:03:49;;;;;;;;;;;;;;;33.31;56.81;99563.35;105151;1289;61090;-85
2023/08/02 08:06:35;;;;;;;;;;;;;;;32.76;56.41;99565.77;105372;1293;73263;-85
2023/08/02 08:09:24;;;;;;;;;;;;;;;32.18;56.63;99569.30;105109;1289;67205;-84
2023/08/02 08:12:10;;;;;;;;;;;;;;;31.28;57.29;99570.61;105206;1290;71164;-85
2023/08/02 08:14:56;;;;;;;;;;;;;;;32.30;55.79;99568.70;105122;1290;59219;-85
2023/08/02 08:17:42;;;;;;;;;;;;;;;31.54;56.13;99573.74;105291;1289;61085;-85
2023/08/02 08:20:28;;;;;;;;;;;;;;;32.60;56.17;99570.84;105114;1289;74881;-84
2023/08/02 08:23:14;;;;;;;;;;;;;;;34.23;55.47;99572.30;105188;1289;67411;-84
2023/08/02 08:26:11;;;;;;;;;;;;;;;35.13;54.93;99562.17;105106;1289;72502;-85
2023/08/02 08:28:57;;;;;;;;;;;;;;;36.65;54.81;99566.52;105044;1292;61179;-84
2023/08/02 08:31:44;;;;;;;;;;;;;;;37.33;53.65;99567.52;104981;1293;58953;-83
2023/08/02 08:34:30;;;;;;;;;;;;;;;35.98;53.58;99564.98;105148;1295;73735;-83
2023/08/02 08:37:16;;;;;;;;;;;;;;;34.98;54.37;99558.73;104951;1291;67945;-83
2023/08/02 08:40:03;;;;;;;;;;;;;;;34.05;53.92;99557.86;105027;1291;71413;-82
2023/08/02 08:42:50;;;;;;;;;;;;;;;32.47;53.74;99554.37;105074;1293;59106;-82
2023/08/02 08:45:36;;;;;;;;;;;;;;;31.42;53.78;99547.89;105154;1291;59457;-83
2023/08/02 08:48:24;;;;;;;;;;;;;;;30.51;53.42;99546.52;105116;1291;73174;-84
2023/08/02 08:51:11;;;;;;;;;;;;;;;29.95;53.72;99542.27;105039;1294;68253;-84
2023/08/02 08:54:01;;;;;;;;;;;;;;;32.17;53.67;99532.98;104946;1291;73465;-84
2023/08/02 08:56:47;;;;;;;;;;;;;;;34.58;52.36;99535.20;105153;1295;59843;-84
2023/08/02 08:59:35;;;;;;;;;;;;;;;34.48;50.98;99532.73;105241;1290;59566;-84
2023/08/02 09:02:23;;;;;;;;;;;;;;;32.89;51.71;99524.79;105085;1292;73776;-84
2023/08/02 09:05:10;;;;;;;;;;;;;;;31.65;51.78;99516.03;105342;1291;68141;-84
2023/08/02 09:08:00;;;;;;;;;;;;;;;30.82;51.68;99516.36;105125;1292;72616;-83
2023/08/02 09:10:45;;;;;;;;;;;;;;;30.06;51.75;99522.11;105213;1291;59121;-84
2023/08/02 09:13:31;;;;;;;;;;;;;;;29.42;51.75;99525.21;105157;1291;63393;-84
2023/08/02 09:16:18;;;;;;;;;;;;;;;28.74;51.34;99528.33;105122;1291;73198;-85
2023/08/02 09:19:04;;;;;;;;;;;;;;;28.23;51.42;99531.75;105025;1291;68916;-84
2023/08/02 09:22:10;;;;;;;;;;;;;;;27.82;51.26;99526.69;105170;1291;71601;-85
2023/08/02 09:25:16;;;;;;;;;;;;;;;27.29;50.81;99524.71;105163;1291;61203;-90
2023/08/02 09:28:42;;;;;;;;;;;;;;;26.74;50.73;99518.65;105206;1291;59945;-89
2023/08/02 09:32:08;;;;;;;;;;;;;;;26.32;50.56;99515.98;105198;1291;74448;-88
2023/08/02 09:35:35;;;;;;;;;;;;;;;25.96;50.53;99528.52;105204;1291;68358;-89
2023/08/02 09:39:01;;;;;;;;;;;;;;;25.59;50.28;99532.08;105133;1291;71137;-89
2023/08/02 09:42:30;;;;;;;;;;;;;;;25.20;50.21;99531.80;105088;1291;59507;-88
2023/08/02 09:45:56;;;;;;;;;;;;;;;24.87;50.36;99536.60;105111;1291;61198;-89
2023/08/02 09:49:16;;;;;;;;;;;;;;;24.63;50.30;99534.80;105005;1291;74135;-85
2023/08/02 09:52:02;;;;;;;;;;;;;;;24.49;50.18;99535.91;104498;1291;68263;-83
2023/08/02 09:54:49;;;;;;;;;;;;;;;24.47;50.33;99531.71;104503;1292;71380;-84
2023/08/02 09:57:36;;;;;;;;;;;;;;;24.48;50.18;99536.35;104997;1291;62673;-84
2023/08/02 10:00:23;;;;;;;;;;;;;;;24.35;50.31;99536.33;105029;1290;61337;-84
2023/08/02 10:03:09;;;;;;;;;;;;;;;24.30;50.42;99537.69;105088;1291;73584;-85
2023/08/02 10:05:58;;;;;;;;;;;;;;;24.23;50.29;99539.48;105039;1296;68733;-84
2023/08/02 10:08:45;;;;;;;;;;;;;;;24.14;50.49;99536.10;106048;1291;72598;-84
2023/08/02 10:11:39;;;;;;;;;;;;;;;24.06;50.53;99533.23;105830;1292;59250;-84
2023/08/02 10:14:25;;;;;;;;;;;;;;;23.97;50.60;99532.97;104941;1291;59333;-84
2023/08/02 10:17:12;;;;;;;;;;;;;;;23.85;50.65;99533.30;105132;1291;76045;-85
2023/08/02 10:20:19;;;;;;;;;;;;;;;23.71;50.68;99531.29;104895;1294;68290;-89
2023/08/02 10:23:25;;;;;;;;;;;;;;;23.57;50.64;99533.04;105068;1295;71280;-89
2023/08/02 10:26:51;;;;;;;;;;;;;;;23.39;50.63;99525.82;104597;1297;61383;-89
2023/08/02 10:30:17;;;;;;;;;;;;;;;23.25;50.75;99524.39;104663;1297;63410;-88
2023/08/02 10:33:44;;;;;;;;;;;;;;;23.30;50.97;99519.08;104087;1308;74436;-88
2023/08/02 10:37:16;;;;;;;;;;;;;;;23.48;51.05;99518.90;104274;1306;67334;-89
2023/08/02 10:40:42;;;;;;;;;;;;;;;23.61;51.01;99517.78;104196;1304;72712;-89
2023/08/02 10:44:12;;;;;;;;;;;;;;;23.67;50.93;99510.20;104163;1305;61282;-89
2023/08/02 10:47:44;;;;;;;;;;;;;;;23.80;51.07;99505.86;103737;1308;61240;-88
2023/08/02 10:51:11;;;;;;;;;;;;;;;23.97;51.05;99501.48;103082;1315;73311;-88
2023/08/02 10:54:37;;;;;;;;;;;;;;;24.00;50.92;99494.52;103034;1314;68389;-88
2023/08/02 10:57:41;;;;;;;;;;;;;;;23.94;51.05;99493.16;102730;1318;71455;-85
2023/08/02 11:00:29;;;;;;;;;;;;;;;23.96;51.11;99481.70;102629;1320;61203;-86
2023/08/02 11:03:27;;;;;;;;;;;;;;;23.99;51.21;99472.06;103030;1317;61097;-85
2023/08/02 11:06:24;;;;;;;;;;;;;;;23.92;51.14;99467.59;103888;1314;74725;-85
2023/08/02 11:09:10;;;;;;;;;;;;;;;23.79;51.16;99468.09;103255;1311;67668;-85
2023/08/02 11:12:07;;;;;;;;;;;;;;;23.72;51.28;99465.69;103899;1311;72331;-85
2023/08/02 11:14:53;;;;;;;;;;;;;;;23.70;51.36;99457.45;104022;1310;61160;-85
2023/08/02 11:17:39;;;;;;;;;;;;;;;23.71;51.39;99458.46;103937;1311;61282;-85
2023/08/02 11:20:28;;;;;;;;;;;;;;;23.78;51.57;99460.28;103982;1305;74552;-85
2023/08/02 11:23:20;;;;;;;;;;;;;;;23.85;51.38;99456.19;104032;1308;67540;-85
2023/08/02 11:26:27;;;;;;;;;;;;;;;23.87;51.43;99447.54;104172;1302;71186;-87
2023/08/02 11:29:53;;;;;;;;;;;;;;;23.89;51.34;99439.42;104492;1298;61300;-87
2023/08/02 11:33:19;;;;;;;;;;;;;;;23.91;51.43;99441.17;104711;1297;59613;-87
2023/08/02 11:36:46;;;;;;;;;;;;;;;23.92;51.38;99431.70;104584;1297;72195;-87
2023/08/02 11:40:12;;;;;;;;;;;;;;;23.99;51.58;99431.42;104589;1299;67158;-87
2023/08/02 11:43:38;;;;;;;;;;;;;;;24.07;51.32;99425.03;104877;1297;72411;-87
2023/08/02 11:47:12;;;;;;;;;;;;;;;24.02;51.31;99420.39;101506;1301;5057334;-87
2023/08/02 11:50:25;;;;;;;;;;;;;;;24.00;51.26;99417.94;104474;1299;73396;-83
2023/08/02 11:53:12;;;;;;;;;;;;;;;23.94;51.40;99421.19;104497;1297;72901;-83
2023/08/02 11:55:58;;;;;;;;;;;;;;;23.97;51.44;99418.23;104540;1302;71364;-84
2023/08/02 11:58:45;;;;;;;;;;;;;;;24.07;51.54;99411.14;104581;1297;59332;-84
2023/08/02 12:01:31;;;;;;;;;;;;;;;24.07;51.38;99404.61;104591;1298;59274;-84
2023/08/02 12:04:17;;;;;;;;;;;;;;;24.08;51.53;99412.16;104526;1300;73195;-84
2023/08/02 12:07:03;;;;;;;;;;;;;;;24.15;51.50;99403.93;104921;1293;67186;-84
2023/08/02 12:09:49;;;;;;;;;;;;;;;24.18;51.36;99405.39;104974;1297;71414;-84
2023/08/02 12:12:35;;;;;;;;;;;;;;;24.21;51.47;99403.03;104875;1294;59230;-84
2023/08/02 12:15:22;;;;;;;;;;;;;;;24.24;51.37;99400.45;105225;1293;61080;-84
2023/08/02 12:18:08;;;;;;;;;;;;;;;24.28;51.34;99402.78;105245;1294;73207;-84
2023/08/02 12:20:54;;;;;;;;;;;;;;;24.31;51.10;99398.94;104898;1293;68677;-84
2023/08/02 12:23:40;;;;;;;;;;;;;;;24.30;51.10;99397.22;105003;1296;73772;-84
2023/08/02 12:26:27;;;;;;;;;;;;;;;24.34;51.27;99393.73;104909;1290;61606;-84
2023/08/02 12:29:24;;;;;;;;;;;;;;;24.35;51.39;99391.87;105070;1291;61267;-84
2023/08/02 12:32:26;;;;;;;;;;;;;;;24.32;51.28;99392.52;104923;1293;73328;-84
2023/08/02 12:35:13;;;;;;;;;;;;;;;24.21;51.15;99386.77;105156;1291;67894;-84
2023/08/02 12:37:59;;;;;;;;;;;;;;;24.20;51.21;99384.40;104974;1295;71621;-84
2023/08/02 12:40:46;;;;;;;;;;;;;;;24.16;51.20;99391.66;104935;1292;59540;-84
2023/08/02 12:43:32;;;;;;;;;;;;;;;24.09;51.17;99386.14;105208;1294;61191;-84
2023/08/02 12:46:18;;;;;;;;;;;;;;;24.03;51.25;99381.98;105009;1290;73368;-84
2023/08/02 12:49:04;;;;;;;;;;;;;;;24.02;51.25;99381.36;105068;1290;69795;-84
2023/08/02 12:52:10;;;;;;;;;;;;;;;23.98;51.20;99378.03;104891;1291;72344;-87
2023/08/02 12:55:39;;;;;;;;;;;;;;;23.94;51.21;99359.88;105102;1291;61224;-89
2023/08/02 14:21:34;;;;;;;;;;;;;;;24.79;50.96;99254.14;83934;1313;61621;-93
2023/08/02 14:25:01;;;;;;;;;;;;;;;24.78;50.68;99247.70;105674;1287;61093;-87
2023/08/02 14:28:27;;;;;;;;;;;;;;;24.78;50.77;99245.23;105649;1288;74381;-87
2023/08/02 14:31:53;;;;;;;;;;;;;;;24.83;50.70;99245.83;105757;1286;68174;-88
2023/08/02 14:35:19;;;;;;;;;;;;;;;24.89;50.67;99236.91;105602;1285;72773;-87
2023/08/02 14:38:45;;;;;;;;;;;;;;;24.97;50.53;99226.06;105257;1291;61174;-86
2023/08/02 14:42:11;;;;;;;;;;;;;;;24.95;50.59;99217.25;105359;1291;59223;-86
2023/08/02 14:45:17;;;;;;;;;;;;;;;24.94;50.63;99221.80;105192;1291;73169;-86
2023/08/02 14:48:24;;;;;;;;;;;;;;;24.94;50.58;99221.99;105167;1291;67536;-86
2023/08/02 14:51:10;;;;;;;;;;;;;;;24.96;50.42;99224.56;105437;1290;71447;-85
2023/08/02 14:53:57;;;;;;;;;;;;;;;24.93;50.14;99222.61;105012;1291;61156;-84
2023/08/02 14:56:42;;;;;;;;;;;;;;;24.92;50.35;99216.52;105000;1292;62830;-85
2023/08/02 14:59:29;;;;;;;;;;;;;;;24.93;50.09;99207.13;105116;1292;75188;-85
2023/08/02 15:02:17;;;;;;;;;;;;;;;24.87;49.93;99198.39;105056;1291;67207;-85
2023/08/02 15:05:23;;;;;;;;;;;;;;;24.82;50.02;99203.62;104995;1290;71291;-88
2023/08/02 15:08:49;;;;;;;;;;;;;;;24.74;49.56;99218.11;105024;1288;61325;-88
2023/08/02 15:12:17;;;;;;;;;;;;;;;24.61;49.83;99211.95;105527;1286;61225;-89
2023/08/02 15:15:42;;;;;;;;;;;;;;;24.56;49.68;99206.70;105360;1287;74021;-87
2023/08/02 15:18:48;;;;;;;;;;;;;;;24.51;49.49;99198.55;105366;1287;67439;-84
2023/08/02 15:21:35;;;;;;;;;;;;;;;24.50;49.69;99194.20;105217;1289;72337;-84
2023/08/02 15:24:21;;;;;;;;;;;;;;;24.54;49.78;99191.32;105294;1286;58983;-87
2023/08/02 15:27:07;;;;;;;;;;;;;;;24.56;49.59;99191.50;105348;1286;61172;-86
2023/08/02 15:29:53;;;;;;;;;;;;;;;24.55;49.59;99181.38;105471;1286;73759;-84
2023/08/02 15:32:39;;;;;;;;;;;;;;;24.56;49.58;99174.23;105308;1289;68464;-84
2023/08/02 15:35:25;;;;;;;;;;;;;;;24.61;49.43;99173.23;105311;1291;72668;-83
2023/08/02 15:38:11;;;;;;;;;;;;;;;24.61;49.41;99168.80;105485;1286;61120;-84
2023/08/02 15:40:57;;;;;;;;;;;;;;;24.57;49.38;99145.03;105170;1294;59778;-84
2023/08/02 15:43:43;;;;;;;;;;;;;;;24.57;49.31;99143.61;105279;1289;74668;-84
2023/08/02 15:46:29;;;;;;;;;;;;;;;24.55;49.29;99143.86;105416;1286;68264;-84
2023/08/02 15:49:15;;;;;;;;;;;;;;;24.49;49.07;99140.35;105307;1289;71171;-84
2023/08/02 15:52:21;;;;;;;;;;;;;;;24.46;49.17;99137.17;105392;1287;61267;-87
2023/08/02 16:01:02;;;;;;;;;;;;;;;24.38;48.93;99115.23;105564;1290;67546;-89
2023/08/02 16:04:29;;;;;;;;;;;;;;;24.36;48.94;99120.83;105447;1288;71815;-89
2023/08/02 16:07:55;;;;;;;;;;;;;;;24.29;48.70;99128.44;104688;1296;59440;-89
2023/08/02 16:11:21;;;;;;;;;;;;;;;24.21;48.68;99133.03;104287;1302;61276;-89
2023/08/02 16:17:26;;;;;;;;;;;;;;;24.16;48.68;99134.77;105851;1285;66523;-89
2023/08/02 16:20:55;;;;;;;;;;;;;;;24.14;48.71;99132.29;105804;1286;73174;-90
2023/08/02 16:26:25;;;;;;;;;;;;;;;24.08;48.77;99132.98;105379;1287;79581;-90
2023/08/02 16:31:52;;;;;;;;;;;;;;;24.06;48.71;99130.21;105597;1286;67578;-90
2023/08/02 16:35:19;;;;;;;;;;;;;;;24.06;48.84;99141.53;105496;1286;72527;-89
2023/08/02 16:38:45;;;;;;;;;;;;;;;24.01;48.78;99140.20;105547;1287;60990;-89
2023/08/02 16:42:11;;;;;;;;;;;;;;;23.94;48.79;99145.48;104761;1297;61754;-89
2023/08/02 16:45:37;;;;;;;;;;;;;;;23.86;48.72;99142.81;104833;1299;73701;-89
2023/08/02 16:49:04;;;;;;;;;;;;;;;23.73;48.76;99142.71;104813;1297;67399;-89
2023/08/02 16:59:44;;;;;;;;;;;;;;;23.44;48.76;99135.92;105384;1288;80928;-85
2023/08/02 17:02:30;;;;;;;;;;;;;;;23.37;48.86;99142.90;105301;1288;69946;-85
2023/08/02 17:05:16;;;;;;;;;;;;;;;23.32;48.73;99145.72;105277;1288;71136;-85
2023/08/02 17:08:02;;;;;;;;;;;;;;;23.27;48.89;99144.79;105191;1288;61243;-85
2023/08/02 17:10:48;;;;;;;;;;;;;;;23.23;48.92;99151.28;105201;1288;61260;-85
2023/08/02 17:13:36;;;;;;;;;;;;;;;23.20;49.02;99145.73;105276;1287;73763;-86
2023/08/02 17:16:38;;;;;;;;;;;;;;;23.17;48.98;99143.94;105158;1288;67321;-86
2023/08/02 17:19:28;;;;;;;;;;;;;;;23.15;49.02;99133.45;105243;1288;72011;-86
2023/08/02 17:22:16;;;;;;;;;;;;;;;23.12;49.05;99122.23;105248;1292;60281;-85
2023/08/02 17:25:02;;;;;;;;;;;;;;;23.07;48.99;99123.04;105198;1294;61296;-86
2023/08/02 17:27:58;;;;;;;;;;;;;;;23.01;48.90;99130.73;105350;1290;74419;-86
2023/08/02 17:30:48;;;;;;;;;;;;;;;22.97;48.88;99140.27;105284;1288;70135;-85
2023/08/02 17:33:55;;;;;;;;;;;;;;;22.93;48.86;99135.01;105210;1288;71133;-85
2023/08/02 17:37:01;;;;;;;;;;;;;;;22.89;48.88;99124.84;105204;1290;61141;-86
2023/08/02 17:39:53;;;;;;;;;;;;;;;22.84;48.96;99105.35;105365;1288;60042;-85
2023/08/02 17:42:39;;;;;;;;;;;;;;;22.80;49.02;99087.73;105314;1291;77391;-84
2023/08/02 17:45:26;;;;;;;;;;;;;;;22.75;49.04;99086.09;105310;1292;67429;-84
2023/08/02 17:48:16;;;;;;;;;;;;;;;22.69;49.02;99082.70;105281;1288;72314;-84
2023/08/02 17:51:02;;;;;;;;;;;;;;;22.64;49.10;99072.63;105266;1290;61288;-84
2023/08/02 17:53:58;;;;;;;;;;;;;;;22.59;49.05;99059.73;105300;1288;60415;-83
2023/08/02 17:56:44;;;;;;;;;;;;;;;22.54;49.09;99036.21;105111;1290;75159;-84
2023/08/02 17:59:31;;;;;;;;;;;;;;;22.48;49.12;99017.41;105311;1289;69043;-84
2023/08/02 18:02:17;;;;;;;;;;;;;;;22.43;49.20;98997.09;105195;1290;71231;-84
2023/08/02 18:05:04;;;;;;;;;;;;;;;22.39;49.22;99001.36;105203;1294;60992;-84
2023/08/02 18:07:51;;;;;;;;;;;;;;;22.35;49.20;99032.63;105412;1290;59139;-84
2023/08/02 18:10:37;;;;;;;;;;;;;;;22.32;49.23;99043.77;105283;1289;77862;-84
2023/08/02 18:13:23;;;;;;;;;;;;;;;22.30;49.27;99048.88;105214;1291;68303;-84
2023/08/02 18:16:09;;;;;;;;;;;;;;;22.28;49.23;99052.75;105258;1292;72488;-84
2023/08/02 18:18:56;;;;;;;;;;;;;;;22.26;49.28;99055.05;105152;1288;61204;-83
2023/08/02 18:21:42;;;;;;;;;;;;;;;22.24;49.33;99058.92;105154;1294;58778;-84